Terminal Aerodrome Forecast
Issued by NWS

Home | Current Version | Previous Version | Text Only | Print | Product List | Glossary On
Versions: 1 2 3 4 5 6 7 8 9 10 11 12 13 14 15 16 17 18 19 20 21 22 23 24 25 26 27 28 29 30 31 32 33 34 35 36 37
289
FTUS43 KGRB 201128
TAFATW
TAF
KATW 201128Z 2012/2112 VRB03KT P6SM SCT200
      TEMPO 2012/2013 4SM BR
     FM201500 21007KT P6SM SCT200
     FM201900 20010G15KT P6SM FEW080 SCT200
     FM210000 18009KT P6SM SCT080 BKN150
     FM210600 21009KT 6SM BR VCTS BKN100CB=

USA.gov is the U.S. government's official web portal to all federal, state and local government web resources and services.